Time;durP1;ratioP1;P1;durP2;ratioP2;P2;SDS_P1;SDS_P2;PMS_P1;PMS_P2;Temp;Humidity;BMP_temperature;BMP_pressure;BME280_temperature;BME280_humidity;BME280_pressure;Samples;Min_cycle;Max_cycle;Signal;HPM_P1;HPM_P2
2024/04/09 00:01:24;;;;;;;19.73;3.45;;;16.20;99.90;;;;;;5400679;26;20368;-85
2024/04/09 00:03:50;;;;;;;25.50;3.80;;;16.40;99.90;;;;;;5428270;26;19999;-84
2024/04/09 00:06:19;;;;;;;35.47;3.85;;;16.50;99.90;;;;;;5406267;26;20014;-83
2024/04/09 00:08:44;;;;;;;24.58;2.92;;;16.80;99.90;;;;;;5425539;26;20006;-84
2024/04/09 00:11:20;;;;;;;8.45;2.78;;;17.00;99.90;;;;;;5428566;26;20054;-86
2024/04/09 00:13:51;;;;;;;16.05;3.28;;;17.10;99.90;;;;;;5428453;26;20003;-84
2024/04/09 00:16:22;;;;;;;15.50;2.45;;;17.20;98.40;;;;;;5423638;26;20013;-83
2024/04/09 00:18:53;;;;;;;22.77;2.92;;;17.20;97.10;;;;;;5425209;26;19999;-84
2024/04/09 00:21:20;;;;;;;18.23;2.60;;;17.30;96.10;;;;;;5391189;26;20457;-84
2024/04/09 00:23:47;;;;;;;19.25;2.70;;;17.30;94.90;;;;;;5400884;26;20048;-83
2024/04/09 00:26:13;;;;;;;14.75;2.70;;;17.30;94.20;;;;;;5423710;26;20407;-85
2024/04/09 00:28:39;;;;;;;14.05;2.83;;;17.30;94.00;;;;;;5426725;26;20480;-84
2024/04/09 00:31:04;;;;;;;23.17;3.13;;;17.30;93.80;;;;;;5417100;26;20003;-83
2024/04/09 00:33:30;;;;;;;16.30;2.75;;;17.20;95.80;;;;;;5427927;26;20014;-84
2024/04/09 00:35:56;;;;;;;9.98;3.40;;;17.10;98.40;;;;;;5402837;26;20049;-84
2024/04/09 00:38:23;;;;;;;25.48;4.38;;;16.70;99.90;;;;;;5393380;26;19996;-85
2024/04/09 00:40:49;;;;;;;13.35;3.38;;;16.50;99.90;;;;;;5431482;26;19999;-83
2024/04/09 00:43:15;;;;;;;22.95;4.07;;;16.20;99.90;;;;;;5387770;26;20011;-84
2024/04/09 00:45:43;;;;;;;35.95;3.58;;;16.10;99.90;;;;;;5425809;26;19995;-84
2024/04/09 00:48:11;;;;;;;37.05;4.15;;;16.20;99.90;;;;;;5423626;26;20080;-83
2024/04/09 00:50:40;;;;;;;21.27;3.45;;;16.30;99.90;;;;;;5424553;26;20014;-83
2024/04/09 00:53:07;;;;;;;25.92;3.90;;;16.20;99.90;;;;;;5400248;26;19995;-84
2024/04/09 00:55:32;;;;;;;24.38;4.95;;;16.20;99.90;;;;;;5415730;26;20027;-83
2024/04/09 00:58:00;;;;;;;18.98;3.33;;;16.20;99.90;;;;;;5420781;26;20076;-82
2024/04/09 01:00:27;;;;;;;16.08;4.10;;;16.30;99.90;;;;;;5395676;26;20010;-83
2024/04/09 01:02:53;;;;;;;30.08;3.22;;;16.30;99.90;;;;;;5403472;26;20023;-82
2024/04/09 01:05:19;;;;;;;37.10;4.75;;;16.30;99.90;;;;;;5429089;26;20582;-85
2024/04/09 01:07:45;;;;;;;29.88;4.43;;;16.30;99.90;;;;;;5425035;26;20366;-83
2024/04/09 01:10:10;;;;;;;21.95;3.83;;;16.30;99.90;;;;;;5423324;26;19996;-83
2024/04/09 01:12:36;;;;;;;17.45;2.90;;;16.30;99.90;;;;;;5432033;26;20006;-83
2024/04/09 01:15:02;;;;;;;22.17;3.33;;;16.30;99.90;;;;;;5401987;26;20016;-83
2024/04/09 01:17:28;;;;;;;24.05;3.67;;;16.20;99.90;;;;;;5420147;26;20465;-83
2024/04/09 01:19:54;;;;;;;23.20;3.60;;;16.20;99.90;;;;;;5420560;26;20002;-83
2024/04/09 01:22:20;;;;;;;14.15;2.85;;;16.30;99.90;;;;;;5427072;26;20000;-83
2024/04/09 01:24:47;;;;;;;31.27;3.85;;;16.20;99.90;;;;;;5423112;26;20011;-84
2024/04/09 01:27:14;;;;;;;13.60;3.33;;;16.30;99.90;;;;;;5405312;26;20000;-85
2024/04/09 01:29:41;;;;;;;21.00;3.40;;;16.20;99.90;;;;;;5427785;26;20004;-83
2024/04/09 01:32:07;;;;;;;15.90;2.67;;;16.10;99.90;;;;;;5396356;26;20000;-84
2024/04/09 01:34:35;;;;;;;23.92;4.20;;;16.10;99.90;;;;;;5429568;26;20009;-83
2024/04/09 01:37:01;;;;;;;25.38;3.72;;;16.20;99.90;;;;;;5429249;26;19999;-84
2024/04/09 01:39:27;;;;;;;23.45;3.92;;;16.20;99.90;;;;;;5424049;26;20068;-83
2024/04/09 01:41:53;;;;;;;18.25;2.80;;;16.00;99.90;;;;;;5403795;26;20003;-83
2024/04/09 01:44:19;;;;;;;51.28;4.93;;;15.70;99.90;;;;;;5403071;26;19995;-83
2024/04/09 01:46:46;;;;;;;17.60;2.63;;;15.70;99.90;;;;;;5417794;26;20000;-84
2024/04/09 01:49:12;;;;;;;21.20;3.08;;;15.70;99.90;;;;;;5416504;26;19999;-83
2024/04/09 01:51:37;;;;;;;26.90;3.67;;;15.60;99.90;;;;;;5425553;26;20007;-84
2024/04/09 01:54:04;;;;;;;14.88;2.95;;;15.70;99.90;;;;;;5396030;26;20080;-86
2024/04/09 01:56:30;;;;;;;23.10;3.85;;;15.70;99.90;;;;;;5392954;26;20442;-83
2024/04/09 01:58:56;;;;;;;23.17;4.05;;;15.70;99.90;;;;;;5425180;26;20072;-85
2024/04/09 02:01:21;;;;;;;15.18;3.28;;;15.50;99.90;;;;;;5394922;26;20007;-85
2024/04/09 02:03:49;;;;;;;13.05;2.33;;;15.50;99.90;;;;;;5400386;26;20346;-82
2024/04/09 02:06:20;;;;;;;14.82;3.22;;;15.50;99.90;;;;;;5428090;26;19995;-84
2024/04/09 02:08:46;;;;;;;25.73;2.90;;;15.30;99.90;;;;;;5384339;26;20357;-85
2024/04/09 02:11:12;;;;;;;33.58;4.25;;;15.30;99.90;;;;;;5418572;26;20022;-83
2024/04/09 02:13:40;;;;;;;16.63;3.58;;;15.40;99.90;;;;;;5422081;26;20009;-84
2024/04/09 02:16:09;;;;;;;27.60;3.08;;;15.20;99.90;;;;;;5425601;26;20032;-85
2024/04/09 02:18:38;;;;;;;14.50;2.80;;;15.10;99.90;;;;;;5416329;26;20473;-84
2024/04/09 02:21:07;;;;;;;21.13;3.50;;;15.30;99.90;;;;;;5428524;26;19999;-84
2024/04/09 02:23:34;;;;;;;22.80;4.38;;;15.30;99.90;;;;;;5391142;26;20466;-85
2024/04/09 02:25:59;;;;;;;14.77;3.45;;;15.30;99.90;;;;;;5421116;26;20069;-83
2024/04/09 02:28:25;;;;;;;17.15;4.15;;;15.20;99.90;;;;;;5418801;26;20004;-84
2024/04/09 02:30:51;;;;;;;16.33;3.08;;;15.20;99.90;;;;;;5422664;26;20003;-83
2024/04/09 02:33:17;;;;;;;16.40;2.70;;;15.20;99.90;;;;;;5429509;26;20015;-82
2024/04/09 02:35:53;;;;;;;22.88;3.65;;;15.20;99.90;;;;;;5425317;26;19994;-84
2024/04/09 02:38:19;;;;;;;20.42;4.05;;;14.90;99.90;;;;;;5425282;26;19995;-83
2024/04/09 02:40:44;;;;;;;21.45;3.85;;;14.80;99.90;;;;;;5419531;26;20066;-83
2024/04/09 02:43:10;;;;;;;21.25;3.25;;;14.80;99.90;;;;;;5421320;26;20014;-83
2024/04/09 02:45:35;;;;;;;16.95;3.05;;;14.70;99.90;;;;;;5417292;26;19999;-85
2024/04/09 02:48:01;;;;;;;9.77;2.83;;;14.70;99.90;;;;;;5421290;26;20000;-85
2024/04/09 02:50:26;;;;;;;11.05;2.30;;;14.90;99.90;;;;;;5412661;26;19991;-85
2024/04/09 02:52:52;;;;;;;15.80;2.72;;;14.90;99.90;;;;;;5402153;26;19995;-87
2024/04/09 02:55:17;;;;;;;11.65;2.92;;;14.90;99.90;;;;;;5392015;26;19991;-84
2024/04/09 02:57:48;;;;;;;22.55;3.55;;;14.90;99.90;;;;;;5422833;26;20018;-86
2024/04/09 03:00:20;;;;;;;20.90;3.63;;;14.90;99.90;;;;;;5424501;26;20523;-85
2024/04/09 03:03:04;;;;;;;20.83;5.07;;;14.70;99.90;;;;;;5427648;26;20419;-83
2024/04/09 03:05:31;;;;;;;13.18;3.80;;;14.60;99.90;;;;;;5424759;26;20014;-83
2024/04/09 03:07:56;;;;;;;21.45;3.65;;;14.60;99.90;;;;;;5397783;26;20015;-82
2024/04/09 03:10:22;;;;;;;24.33;3.63;;;14.50;99.90;;;;;;5426373;26;20007;-82
2024/04/09 03:12:48;;;;;;;17.20;3.13;;;14.40;99.90;;;;;;5401417;26;20000;-83
2024/04/09 03:15:14;;;;;;;12.98;3.30;;;14.40;99.90;;;;;;5422268;26;19996;-84
2024/04/09 03:17:43;;;;;;;15.85;2.83;;;14.50;99.90;;;;;;5426245;26;20011;-84
2024/04/09 03:20:12;;;;;;;12.55;2.97;;;14.50;99.90;;;;;;5402162;26;20000;-83
2024/04/09 03:22:38;;;;;;;12.90;3.47;;;14.60;99.90;;;;;;5418449;26;20014;-82
2024/04/09 03:25:05;;;;;;;26.35;3.25;;;15.00;99.90;;;;;;5417341;26;19996;-83
2024/04/09 03:27:34;;;;;;;22.92;3.72;;;14.90;99.90;;;;;;5423704;26;20456;-83
2024/04/09 03:30:00;;;;;;;25.25;3.20;;;14.70;99.90;;;;;;5399520;26;20022;-84
2024/04/09 03:32:26;;;;;;;28.63;4.05;;;14.50;99.90;;;;;;5433174;26;20076;-83
2024/04/09 03:34:52;;;;;;;17.60;3.65;;;14.40;99.90;;;;;;5422005;26;19996;-84
2024/04/09 03:37:17;;;;;;;23.38;3.90;;;14.40;99.90;;;;;;5399020;26;20606;-83
2024/04/09 03:39:43;;;;;;;23.88;3.35;;;14.50;99.90;;;;;;5396075;26;20014;-86
2024/04/09 03:42:09;;;;;;;21.33;2.95;;;14.60;99.90;;;;;;5424290;26;20003;-86
2024/04/09 03:44:34;;;;;;;40.17;3.33;;;14.80;99.90;;;;;;5416759;26;20523;-86
2024/04/09 03:47:03;;;;;;;16.80;4.15;;;14.60;99.90;;;;;;5403194;26;20502;-86
2024/04/09 03:49:33;;;;;;;17.48;3.25;;;14.50;99.90;;;;;;5397675;26;20011;-83
2024/04/09 03:51:59;;;;;;;24.70;3.97;;;14.50;99.90;;;;;;5423882;26;20021;-84
2024/04/09 03:54:24;;;;;;;21.67;4.47;;;14.40;99.90;;;;;;5395504;26;20014;-83
2024/04/09 03:56:50;;;;;;;13.15;3.50;;;14.40;99.90;;;;;;5425310;26;19995;-83
2024/04/09 03:59:15;;;;;;;27.00;3.90;;;14.40;99.90;;;;;;5427908;26;19999;-84
2024/04/09 04:01:41;;;;;;;20.50;3.72;;;14.50;99.90;;;;;;5398497;26;20017;-83
2024/04/09 04:04:07;;;;;;;26.35;4.60;;;14.40;99.90;;;;;;5426314;26;20076;-84
2024/04/09 04:06:32;;;;;;;11.30;3.60;;;14.30;99.90;;;;;;5390848;26;20000;-85
2024/04/09 04:08:58;;;;;;;23.90;4.25;;;14.20;99.90;;;;;;5422424;26;20010;-82
2024/04/09 04:11:24;;;;;;;28.98;3.70;;;14.10;99.90;;;;;;5395527;26;20027;-84
2024/04/09 04:13:49;;;;;;;16.48;3.40;;;13.90;99.90;;;;;;5426118;26;20005;-83
2024/04/09 04:16:16;;;;;;;13.20;3.10;;;13.80;99.90;;;;;;5419563;26;20007;-85
2024/04/09 04:18:49;;;;;;;16.17;3.60;;;13.80;99.90;;;;;;5422889;26;20007;-84
2024/04/09 04:21:16;;;;;;;18.27;3.63;;;14.00;99.90;;;;;;5402699;26;19998;-83
2024/04/09 04:23:43;;;;;;;27.25;3.80;;;14.00;99.90;;;;;;5422533;26;20427;-85
2024/04/09 04:26:17;;;;;;;21.77;3.58;;;14.50;99.90;;;;;;5416744;26;20087;-84
2024/04/09 04:28:44;;;;;;;20.48;2.92;;;14.50;99.90;;;;;;5395546;26;20006;-84
2024/04/09 04:31:14;;;;;;;18.05;3.08;;;14.30;99.90;;;;;;5421355;26;20035;-82
2024/04/09 04:33:40;;;;;;;17.95;3.60;;;14.30;99.90;;;;;;5394243;26;20003;-84
2024/04/09 04:36:07;;;;;;;17.95;3.30;;;14.40;99.90;;;;;;5403475;26;20086;-83
2024/04/09 04:38:33;;;;;;;27.35;3.40;;;14.60;99.90;;;;;;5422777;26;20000;-83
2024/04/09 04:40:59;;;;;;;21.50;4.10;;;14.50;99.90;;;;;;5420101;26;20003;-84
2024/04/09 04:43:24;;;;;;;19.42;2.65;;;14.60;99.90;;;;;;5424526;26;20369;-83
2024/04/09 04:45:56;;;;;;;23.08;3.45;;;14.80;99.90;;;;;;5396641;26;20014;-83
2024/04/09 04:48:22;;;;;;;15.20;3.13;;;14.80;99.90;;;;;;5419969;26;19996;-83
2024/04/09 04:50:49;;;;;;;19.10;3.28;;;14.70;99.90;;;;;;5390064;26;20003;-83
2024/04/09 04:53:15;;;;;;;22.10;3.85;;;14.70;99.90;;;;;;5393210;26;20003;-84
2024/04/09 04:55:41;;;;;;;20.33;3.20;;;14.90;99.90;;;;;;5422935;26;19995;-85
2024/04/09 04:58:07;;;;;;;13.52;3.05;;;15.00;99.90;;;;;;5432070;26;20372;-84
2024/04/09 05:00:35;;;;;;;24.23;3.03;;;15.00;99.90;;;;;;5405343;26;20018;-84
2024/04/09 05:03:00;;;;;;;27.50;3.13;;;15.00;99.90;;;;;;5427078;26;19998;-84
2024/04/09 05:05:28;;;;;;;20.58;3.20;;;15.00;99.90;;;;;;5393710;26;20040;-84
2024/04/09 05:07:53;;;;;;;17.48;3.17;;;14.90;99.90;;;;;;5400669;26;20476;-84
2024/04/09 05:10:19;;;;;;;17.75;3.05;;;15.00;99.90;;;;;;5415529;26;20088;-85
2024/04/09 05:12:47;;;;;;;18.33;2.63;;;15.10;99.90;;;;;;5421699;26;20453;-84
2024/04/09 05:15:13;;;;;;;32.65;3.05;;;15.20;99.90;;;;;;5427550;26;20007;-83
2024/04/09 05:17:39;;;;;;;24.20;3.00;;;15.50;99.90;;;;;;5425766;26;20009;-83
2024/04/09 05:20:12;;;;;;;21.25;3.47;;;15.80;99.90;;;;;;5425282;26;20072;-87
2024/04/09 05:22:38;;;;;;;16.90;2.97;;;15.90;99.90;;;;;;5398560;26;20027;-83
2024/04/09 05:25:09;;;;;;;15.70;3.25;;;16.10;99.90;;;;;;5410117;26;20002;-85
2024/04/09 05:27:35;;;;;;;25.60;2.75;;;16.20;99.90;;;;;;5431128;26;20010;-83
2024/04/09 05:30:01;;;;;;;19.40;2.65;;;16.20;99.90;;;;;;5424090;26;20000;-84
2024/04/09 05:32:29;;;;;;;27.95;3.28;;;16.20;99.90;;;;;;5413675;26;20003;-84
2024/04/09 05:34:56;;;;;;;26.33;3.55;;;16.30;99.90;;;;;;5417749;26;20003;-87
2024/04/09 05:37:22;;;;;;;21.02;3.25;;;16.30;99.90;;;;;;5398556;26;20003;-84
2024/04/09 05:39:48;;;;;;;26.65;3.53;;;16.40;99.90;;;;;;5419684;26;19998;-83
2024/04/09 05:42:15;;;;;;;13.30;2.92;;;16.50;99.90;;;;;;5399249;26;20377;-87
2024/04/09 05:44:40;;;;;;;28.92;3.65;;;16.40;99.90;;;;;;5402977;26;20010;-86
2024/04/09 05:47:06;;;;;;;19.23;3.67;;;16.40;99.90;;;;;;5389771;26;20003;-83
2024/04/09 05:49:35;;;;;;;22.23;3.05;;;16.40;99.90;;;;;;5418922;26;20011;-86
2024/04/09 05:52:01;;;;;;;43.43;3.77;;;16.30;99.90;;;;;;5385086;26;20007;-84
2024/04/09 05:54:28;;;;;;;11.27;2.13;;;16.30;99.90;;;;;;5426791;26;20010;-84
2024/04/09 05:56:54;;;;;;;21.77;2.75;;;16.40;99.90;;;;;;5423053;26;20391;-87
2024/04/09 05:59:20;;;;;;;19.73;3.35;;;16.30;99.90;;;;;;5428224;26;19999;-85
2024/04/09 06:01:46;;;;;;;29.13;3.88;;;16.40;99.90;;;;;;5397124;26;20038;-84
2024/04/09 06:04:11;;;;;;;13.38;2.72;;;16.40;99.90;;;;;;5417386;26;19995;-85
2024/04/09 06:06:37;;;;;;;26.88;2.83;;;16.40;99.90;;;;;;5386744;26;20010;-84
2024/04/09 06:09:03;;;;;;;28.30;3.25;;;16.30;99.90;;;;;;5420961;26;19996;-83
2024/04/09 06:11:28;;;;;;;19.67;3.22;;;16.00;99.90;;;;;;5426036;26;20003;-84
2024/04/09 06:13:54;;;;;;;29.23;3.90;;;15.80;99.90;;;;;;5384155;26;20770;-86
2024/04/09 06:16:20;;;;;;;34.85;3.63;;;15.70;99.90;;;;;;5421212;26;19998;-84
2024/04/09 06:18:46;;;;;;;18.38;3.30;;;15.70;99.90;;;;;;5391572;26;20758;-83
2024/04/09 06:21:11;;;;;;;25.48;3.78;;;15.50;99.90;;;;;;5395766;26;20040;-83
2024/04/09 06:23:37;;;;;;;29.85;4.82;;;15.80;99.90;;;;;;5394814;26;20055;-84
2024/04/09 06:26:03;;;;;;;24.45;3.75;;;15.90;99.90;;;;;;5414219;26;20014;-83
2024/04/09 06:28:28;;;;;;;25.05;3.95;;;15.80;99.90;;;;;;5429473;26;20010;-83
2024/04/09 06:30:54;;;;;;;26.77;3.72;;;15.70;99.90;;;;;;5390475;26;19994;-83
2024/04/09 06:33:21;;;;;;;28.27;3.72;;;15.70;99.90;;;;;;5425569;26;20019;-85
2024/04/09 06:35:46;;;;;;;35.03;4.43;;;15.80;99.90;;;;;;5433695;26;19991;-84
2024/04/09 06:38:12;;;;;;;18.85;3.70;;;15.90;99.90;;;;;;5398196;26;20075;-83
2024/04/09 06:40:37;;;;;;;40.45;3.88;;;16.10;99.90;;;;;;5421083;26;20074;-87
2024/04/09 06:43:05;;;;;;;31.08;3.22;;;16.10;99.90;;;;;;5416034;26;20545;-84
2024/04/09 06:45:31;;;;;;;15.02;3.67;;;16.10;99.90;;;;;;5399741;26;20043;-86
2024/04/09 06:47:56;;;;;;;33.00;4.57;;;16.20;99.90;;;;;;5417668;26;19996;-83
2024/04/09 06:50:22;;;;;;;30.20;4.30;;;16.20;99.90;;;;;;5420815;26;20000;-83
2024/04/09 06:52:47;;;;;;;28.60;3.20;;;16.20;99.90;;;;;;5418015;26;20007;-83
2024/04/09 06:55:13;;;;;;;26.95;3.50;;;16.20;99.90;;;;;;5424100;26;20675;-88
2024/04/09 06:57:38;;;;;;;32.15;4.53;;;16.30;99.90;;;;;;5399775;26;20575;-84
2024/04/09 07:00:07;;;;;;;31.02;4.95;;;16.30;99.90;;;;;;5401984;26;20007;-83
2024/04/09 07:02:33;;;;;;;17.90;3.40;;;16.40;99.90;;;;;;5421391;26;20011;-85
2024/04/09 07:04:59;;;;;;;21.15;3.28;;;16.60;99.90;;;;;;5422281;26;20008;-84
2024/04/09 07:07:25;;;;;;;23.55;4.25;;;16.60;99.90;;;;;;5383643;26;20004;-84
2024/04/09 07:09:51;;;;;;;24.63;3.15;;;16.60;99.90;;;;;;5387170;26;20420;-84
2024/04/09 07:12:17;;;;;;;22.77;5.15;;;16.80;99.90;;;;;;5391392;26;20039;-84
2024/04/09 07:14:43;;;;;;;27.40;4.20;;;16.70;99.90;;;;;;5421262;26;20003;-85
2024/04/09 07:17:08;;;;;;;9.45;2.20;;;16.70;99.90;;;;;;5415313;26;19995;-77
2024/04/09 07:19:34;;;;;;;8.45;2.90;;;17.10;99.90;;;;;;5418604;26;20017;-76
2024/04/09 07:21:59;;;;;;;14.70;2.67;;;17.50;99.90;;;;;;5420897;26;20370;-77
2024/04/09 07:24:25;;;;;;;14.70;2.33;;;17.80;99.90;;;;;;5405476;26;20571;-78
2024/04/09 07:26:50;;;;;;;16.60;2.92;;;17.90;99.90;;;;;;5396875;26;20018;-78
2024/04/09 07:29:18;;;;;;;21.63;2.58;;;17.90;99.90;;;;;;5385768;26;20464;-76
2024/04/09 07:31:44;;;;;;;7.15;1.92;;;17.90;99.90;;;;;;5417045;26;20415;-76
2024/04/09 07:34:09;;;;;;;19.85;2.42;;;18.00;99.90;;;;;;5393562;26;20007;-77
2024/04/09 07:36:35;;;;;;;13.50;2.38;;;17.90;99.90;;;;;;5419292;26;20745;-78
2024/04/09 07:39:00;;;;;;;15.55;2.47;;;17.90;99.90;;;;;;5423577;26;20014;-77
2024/04/09 07:41:26;;;;;;;12.77;2.70;;;17.90;99.90;;;;;;5414996;26;20018;-76
2024/04/09 07:43:52;;;;;;;22.42;2.40;;;17.90;99.90;;;;;;5417299;26;20011;-76
2024/04/09 07:46:19;;;;;;;14.43;2.47;;;17.90;99.90;;;;;;5420194;26;19999;-76
2024/04/09 07:48:44;;;;;;;10.30;2.60;;;17.90;99.90;;;;;;5420804;26;20003;-76
2024/04/09 07:51:11;;;;;;;15.52;2.28;;;17.90;99.90;;;;;;5434723;26;20068;-77
2024/04/09 07:53:38;;;;;;;12.00;2.50;;;17.90;99.90;;;;;;5420289;26;19999;-77
2024/04/09 07:56:05;;;;;;;11.15;2.22;;;17.90;99.90;;;;;;5429881;26;20027;-78
2024/04/09 07:58:31;;;;;;;11.73;2.67;;;17.80;99.90;;;;;;5397894;26;19996;-78
2024/04/09 08:00:56;;;;;;;16.83;2.70;;;17.80;99.90;;;;;;5425832;26;20077;-76
2024/04/09 08:03:22;;;;;;;18.30;3.22;;;17.80;99.90;;;;;;5422437;26;20415;-76
2024/04/09 08:05:47;;;;;;;11.60;2.65;;;17.80;99.90;;;;;;5424023;26;20162;-77
2024/04/09 08:08:13;;;;;;;8.80;2.60;;;17.80;99.90;;;;;;5425289;26;20007;-78
2024/04/09 08:10:40;;;;;;;15.18;2.72;;;17.80;99.90;;;;;;5419845;26;20005;-78
2024/04/09 08:13:05;;;;;;;9.48;3.35;;;17.70;99.90;;;;;;5407315;26;20473;-78
2024/04/09 08:15:31;;;;;;;19.42;2.63;;;17.80;99.90;;;;;;5426808;26;20000;-76
2024/04/09 08:17:57;;;;;;;14.10;3.00;;;17.80;99.90;;;;;;5431889;26;20006;-78
2024/04/09 08:20:23;;;;;;;13.50;3.80;;;17.80;99.90;;;;;;5437931;26;19999;-77
2024/04/09 08:22:49;;;;;;;17.27;2.03;;;17.80;99.90;;;;;;5422616;26;20007;-77
2024/04/09 08:25:18;;;;;;;21.35;2.45;;;17.80;99.90;;;;;;5431976;26;20080;-78
2024/04/09 08:27:45;;;;;;;18.02;2.55;;;17.80;99.90;;;;;;5426734;26;20357;-77
2024/04/09 08:30:15;;;;;;;19.80;3.10;;;17.80;99.90;;;;;;5404203;26;20018;-77
2024/04/09 08:32:41;;;;;;;20.15;3.85;;;17.80;99.90;;;;;;5416153;26;20007;-77
2024/04/09 08:35:07;;;;;;;14.05;3.42;;;17.70;99.90;;;;;;5419089;26;20079;-78
2024/04/09 08:37:33;;;;;;;14.82;2.85;;;17.60;99.90;;;;;;5402734;26;20360;-76
2024/04/09 08:39:59;;;;;;;18.95;3.10;;;17.70;99.90;;;;;;5399062;26;19999;-77
2024/04/09 08:42:29;;;;;;;11.23;2.13;;;17.70;99.90;;;;;;5406565;26;19996;-77
2024/04/09 08:44:57;;;;;;;10.15;3.28;;;17.80;99.90;;;;;;5394779;26;20015;-77
2024/04/09 08:47:24;;;;;;;8.00;1.98;;;17.70;99.90;;;;;;5397946;26;19999;-76
2024/04/09 08:49:51;;;;;;;18.67;3.05;;;17.80;99.90;;;;;;5422925;26;20426;-77
2024/04/09 08:52:21;;;;;;;14.48;3.05;;;17.80;99.90;;;;;;5419706;26;20006;-77
2024/04/09 08:54:47;;;;;;;10.68;2.75;;;17.80;99.90;;;;;;5424620;26;20016;-76
2024/04/09 08:57:13;;;;;;;10.25;3.30;;;17.90;99.90;;;;;;5424843;26;20076;-78
2024/04/09 08:59:39;;;;;;;13.80;3.72;;;18.00;99.90;;;;;;5425721;26;20004;-77
2024/04/09 09:02:14;;;;;;;15.15;2.78;;;18.00;99.90;;;;;;5427319;26;20442;-78
2024/04/09 09:04:44;;;;;;;20.35;2.42;;;17.90;99.90;;;;;;5423389;26;20356;-76
2024/04/09 09:07:14;;;;;;;10.05;2.10;;;17.90;99.90;;;;;;5421885;26;19999;-76
2024/04/09 09:09:40;;;;;;;7.20;2.25;;;17.90;99.90;;;;;;5416762;26;20022;-78
2024/04/09 09:12:06;;;;;;;14.98;2.33;;;18.00;99.90;;;;;;5390177;26;20073;-77
2024/04/09 09:14:32;;;;;;;12.73;2.22;;;18.40;99.90;;;;;;5403352;26;20731;-77
2024/04/09 09:17:06;;;;;;;21.58;2.05;;;18.60;99.90;;;;;;5423580;26;20410;-77
2024/04/09 09:19:34;;;;;;;14.65;2.50;;;18.50;99.90;;;;;;5395361;26;20000;-76
2024/04/09 09:22:01;;;;;;;13.52;2.38;;;18.30;99.90;;;;;;5435646;26;20003;-77
2024/04/09 09:24:28;;;;;;;10.35;1.98;;;18.10;99.90;;;;;;5395219;26;20022;-77
2024/04/09 09:27:05;;;;;;;7.80;2.05;;;18.10;99.90;;;;;;5430811;26;19999;-77
2024/04/09 09:29:31;;;;;;;8.35;2.13;;;18.10;99.90;;;;;;5409736;26;19999;-78
2024/04/09 09:31:58;;;;;;;10.93;1.80;;;18.10;99.90;;;;;;5432908;26;20072;-77
2024/04/09 09:34:43;;;;;;;10.02;2.45;;;18.50;99.90;;;;;;5419615;26;20000;-76
2024/04/09 09:37:10;;;;;;;20.58;3.08;;;18.40;99.90;;;;;;5418075;26;20011;-77
2024/04/09 09:39:40;;;;;;;10.38;2.25;;;18.50;99.90;;;;;;5422646;26;20018;-78
2024/04/09 09:42:06;;;;;;;;;;;18.20;99.90;;;;;;5425463;26;20022;-77
2024/04/09 09:44:37;;;;;;;8.50;2.13;;;18.10;99.90;;;;;;5415936;26;19924;-77
2024/04/09 09:47:03;;;;;;;17.40;3.45;;;17.90;99.90;;;;;;5404976;26;20007;-77
2024/04/09 09:49:29;;;;;;;10.95;1.65;;;17.80;99.90;;;;;;5418278;26;20000;-77
2024/04/09 09:51:55;;;;;;;6.75;1.60;;;17.70;99.90;;;;;;5424660;26;19996;-77
2024/04/09 09:54:22;;;;;;;13.73;1.77;;;17.70;99.90;;;;;;5423813;26;20018;-76
2024/04/09 09:56:51;;;;;;;1.00;0.68;;;17.70;99.90;;;;;;5400089;26;19994;-88
2024/04/09 09:59:19;;;;;;;3.17;0.40;;;16.30;99.90;;;;;;5421261;26;20039;-85
2024/04/09 10:01:48;;;;;;;9.32;0.88;;;15.70;99.90;;;;;;5424262;26;20000;-85
2024/04/09 10:04:18;;;;;;;2.45;0.55;;;15.50;99.90;;;;;;5426330;26;19999;-88
2024/04/09 10:07:01;;;;;;;1.95;0.75;;;15.50;99.90;;;;;;5424582;26;20008;-85
2024/04/09 10:09:57;;;;;;;2.22;0.75;;;16.10;99.90;;;;;;5399554;26;20007;-84
2024/04/09 10:12:23;;;;;;;10.93;0.60;;;16.80;99.90;;;;;;5383169;26;19995;-84
2024/04/09 10:14:58;;;;;;;2.00;0.55;;;16.30;99.90;;;;;;5422284;26;19995;-86
2024/04/09 10:17:30;;;;;;;5.60;0.65;;;16.10;99.90;;;;;;5427270;26;19999;-84
2024/04/09 10:19:55;;;;;;;9.65;0.70;;;16.40;99.90;;;;;;5400624;26;20035;-84
2024/04/09 10:22:21;;;;;;;1.52;0.55;;;16.30;99.90;;;;;;5401890;26;20460;-85
2024/04/09 10:24:49;;;;;;;0.60;0.55;;;16.20;99.90;;;;;;5423134;26;20004;-85
2024/04/09 10:27:18;;;;;;;0.65;0.52;;;15.80;99.90;;;;;;5423494;26;20003;-86
2024/04/09 10:29:53;;;;;;;2.08;0.55;;;15.50;99.90;;;;;;5408619;26;20097;-88
2024/04/09 10:32:22;;;;;;;0.73;0.50;;;15.30;99.90;;;;;;5404611;26;20003;-84
2024/04/09 10:34:48;;;;;;;1.77;0.63;;;15.20;99.90;;;;;;5400093;26;20076;-85
2024/04/09 10:37:15;;;;;;;11.38;1.95;;;15.30;99.90;;;;;;5390298;26;20473;-85
2024/04/09 10:39:41;;;;;;;3.88;0.50;;;15.20;99.90;;;;;;5417249;26;20011;-86
2024/04/09 10:42:07;;;;;;;5.60;0.68;;;15.20;99.90;;;;;;5398732;26;20003;-88
2024/04/09 10:44:33;;;;;;;0.82;0.82;;;15.00;99.90;;;;;;5398601;26;20407;-87
2024/04/09 10:46:59;;;;;;;0.73;0.60;;;14.90;99.90;;;;;;5395065;26;19999;-86
2024/04/09 10:49:24;;;;;;;1.48;0.43;;;14.90;99.90;;;;;;5416168;26;20006;-85
2024/04/09 10:51:50;;;;;;;0.40;0.40;;;15.00;99.90;;;;;;5388254;26;20007;-85
2024/04/09 10:54:15;;;;;;;0.50;0.50;;;15.00;99.90;;;;;;5420558;26;19991;-88
2024/04/09 10:56:41;;;;;;;0.50;0.50;;;15.10;99.90;;;;;;5422327;26;20015;-86
2024/04/09 10:59:21;;;;;;;3.25;0.47;;;14.80;99.90;;;;;;5429269;26;20006;-86
2024/04/09 11:01:47;;;;;;;2.25;0.35;;;14.70;99.90;;;;;;5422378;26;20004;-84
2024/04/09 11:04:16;;;;;;;17.60;0.63;;;14.70;99.90;;;;;;5392724;26;20087;-86
2024/04/09 11:06:42;;;;;;;0.30;0.30;;;14.70;99.90;;;;;;5398805;26;20004;-84
2024/04/09 11:09:08;;;;;;;0.98;0.35;;;14.60;99.90;;;;;;5423247;26;20017;-84
2024/04/09 11:11:34;;;;;;;6.45;0.43;;;14.50;99.90;;;;;;5420405;26;19999;-84
2024/04/09 11:14:01;;;;;;;5.50;0.40;;;14.50;99.90;;;;;;5413364;26;20042;-84
2024/04/09 11:16:27;;;;;;;2.75;0.60;;;14.50;99.90;;;;;;5397317;26;20026;-88
2024/04/09 11:19:00;;;;;;;2.03;0.60;;;14.40;99.90;;;;;;5398904;26;20365;-85
2024/04/09 11:21:28;;;;;;;0.43;0.30;;;14.40;99.90;;;;;;5404529;26;20003;-85
2024/04/09 11:23:54;;;;;;;0.40;0.40;;;14.30;99.90;;;;;;5395473;26;19999;-87
2024/04/09 11:26:20;;;;;;;4.28;0.40;;;14.40;99.90;;;;;;5399220;26;19999;-85
2024/04/09 11:28:50;;;;;;;0.40;0.40;;;14.30;99.90;;;;;;5400834;26;20010;-85
2024/04/09 11:31:22;;;;;;;1.35;0.50;;;14.30;99.90;;;;;;5424642;26;19999;-86
2024/04/09 11:33:51;;;;;;;0.32;0.32;;;14.30;99.90;;;;;;5397291;26;20014;-85
2024/04/09 11:36:17;;;;;;;1.08;0.40;;;14.30;99.90;;;;;;5420745;26;20010;-85
2024/04/09 11:38:42;;;;;;;1.38;0.43;;;14.20;99.90;;;;;;5418388;26;20342;-85
2024/04/09 11:41:08;;;;;;;0.40;0.40;;;14.30;99.90;;;;;;5425611;26;20062;-85
2024/04/09 11:43:34;;;;;;;0.35;0.35;;;14.30;99.90;;;;;;5426525;26;20090;-85
2024/04/09 11:46:01;;;;;;;2.13;0.45;;;14.20;99.90;;;;;;5415846;26;20004;-86
2024/04/09 11:48:27;;;;;;;0.90;0.50;;;14.10;99.90;;;;;;5428390;26;20471;-84
2024/04/09 11:50:53;;;;;;;0.85;0.50;;;14.20;99.90;;;;;;5422543;26;20354;-87
2024/04/09 11:53:19;;;;;;;2.65;0.47;;;14.10;99.90;;;;;;5429961;26;20076;-84
2024/04/09 11:55:45;;;;;;;0.50;0.40;;;14.20;99.90;;;;;;5427973;26;20014;-85
2024/04/09 11:58:10;;;;;;;0.45;0.40;;;14.20;99.90;;;;;;5395796;26;20719;-84
2024/04/09 12:00:37;;;;;;;1.27;0.60;;;14.20;99.90;;;;;;5426688;26;20007;-88
2024/04/09 12:03:03;;;;;;;3.13;0.45;;;14.20;99.90;;;;;;5396389;26;19999;-84
2024/04/09 12:05:29;;;;;;;0.60;0.40;;;14.00;99.90;;;;;;5424749;26;20008;-87
2024/04/09 12:07:55;;;;;;;0.88;0.45;;;14.00;99.90;;;;;;5417047;26;20010;-87
2024/04/09 12:10:22;;;;;;;0.30;0.30;;;14.00;99.90;;;;;;5417423;26;20591;-85
2024/04/09 12:12:47;;;;;;;0.30;0.30;;;14.00;99.90;;;;;;5398041;26;20006;-85
2024/04/09 12:15:13;;;;;;;12.27;0.60;;;14.00;99.90;;;;;;5416841;26;20019;-85
2024/04/09 12:17:41;;;;;;;0.30;0.30;;;14.00;99.90;;;;;;5422675;26;20462;-84
2024/04/09 12:20:08;;;;;;;6.72;0.50;;;14.00;99.90;;;;;;5423372;26;20038;-85
2024/04/09 12:22:34;;;;;;;2.17;0.50;;;13.90;99.90;;;;;;5426397;26;20007;-84
2024/04/09 12:24:59;;;;;;;0.40;0.40;;;13.90;99.90;;;;;;5394187;26;20000;-87
2024/04/09 12:27:25;;;;;;;0.30;0.30;;;13.90;99.90;;;;;;5397572;26;20476;-84
2024/04/09 12:29:51;;;;;;;1.90;0.52;;;13.90;99.90;;;;;;5426831;26;20015;-85
2024/04/09 12:32:17;;;;;;;0.40;0.40;;;13.80;99.90;;;;;;5401619;26;20070;-85
2024/04/09 12:34:43;;;;;;;3.25;0.40;;;13.90;99.90;;;;;;5423739;26;20003;-87
2024/04/09 12:37:08;;;;;;;2.15;0.40;;;13.80;99.90;;;;;;5399857;26;20065;-85
2024/04/09 12:39:34;;;;;;;0.40;0.40;;;13.80;99.90;;;;;;5399369;26;20035;-87